sensor_id;sensor_type;location;lat;lon;timestamp;P1;durP1;ratioP1;P2;durP2;ratioP2
25810;SDS011;13645;52.460;13.910;2023-08-30T00:00:46;4.00;;;1.48;;
25810;SDS011;13645;52.460;13.910;2023-08-30T00:03:17;2.10;;;1.50;;
25810;SDS011;13645;52.460;13.910;2023-08-30T00:05:45;2.65;;;1.33;;
25810;SDS011;13645;52.460;13.910;2023-08-30T00:08:18;3.22;;;1.58;;
25810;SDS011;13645;52.460;13.910;2023-08-30T00:10:47;4.97;;;1.52;;
25810;SDS011;13645;52.460;13.910;2023-08-30T00:13:16;4.00;;;1.30;;
25810;SDS011;13645;52.460;13.910;2023-08-30T00:15:43;3.60;;;1.67;;
25810;SDS011;13645;52.460;13.910;2023-08-30T00:18:10;4.70;;;1.60;;
25810;SDS011;13645;52.460;13.910;2023-08-30T00:20:42;7.40;;;1.80;;
25810;SDS011;13645;52.460;13.910;2023-08-30T00:23:11;10.70;;;1.83;;
25810;SDS011;13645;52.460;13.910;2023-08-30T00:25:43;2.10;;;1.60;;
25810;SDS011;13645;52.460;13.910;2023-08-30T00:28:10;3.90;;;1.60;;
25810;SDS011;13645;52.460;13.910;2023-08-30T00:30:37;4.20;;;1.40;;
25810;SDS011;13645;52.460;13.910;2023-08-30T00:33:04;3.28;;;1.30;;
25810;SDS011;13645;52.460;13.910;2023-08-30T00:35:36;6.65;;;1.60;;
25810;SDS011;13645;52.460;13.910;2023-08-30T00:38:03;4.72;;;1.50;;
25810;SDS011;13645;52.460;13.910;2023-08-30T00:40:40;5.50;;;1.60;;
25810;SDS011;13645;52.460;13.910;2023-08-30T00:43:09;1.42;;;1.30;;
25810;SDS011;13645;52.460;13.910;2023-08-30T00:45:40;3.70;;;1.35;;
25810;SDS011;13645;52.460;13.910;2023-08-30T00:48:07;2.72;;;1.48;;
25810;SDS011;13645;52.460;13.910;2023-08-30T00:50:35;5.13;;;1.58;;
25810;SDS011;13645;52.460;13.910;2023-08-30T00:53:04;2.03;;;1.42;;
25810;SDS011;13645;52.460;13.910;2023-08-30T00:55:36;3.85;;;1.60;;
25810;SDS011;13645;52.460;13.910;2023-08-30T00:58:04;6.50;;;1.52;;
25810;SDS011;13645;52.460;13.910;2023-08-30T01:00:34;5.93;;;1.50;;
25810;SDS011;13645;52.460;13.910;2023-08-30T01:04:44;4.00;;;1.73;;
25810;SDS011;13645;52.460;13.910;2023-08-30T01:08:32;4.10;;;1.63;;
25810;SDS011;13645;52.460;13.910;2023-08-30T01:12:00;2.55;;;1.50;;
25810;SDS011;13645;52.460;13.910;2023-08-30T01:15:48;2.03;;;1.70;;
25810;SDS011;13645;52.460;13.910;2023-08-30T01:20:01;7.20;;;2.38;;
25810;SDS011;13645;52.460;13.910;2023-08-30T01:23:56;2.28;;;1.70;;
25810;SDS011;13645;52.460;13.910;2023-08-30T01:27:39;6.93;;;2.15;;
25810;SDS011;13645;52.460;13.910;2023-08-30T01:35:22;5.25;;;2.00;;
25810;SDS011;13645;52.460;13.910;2023-08-30T01:39:09;4.18;;;2.25;;
25810;SDS011;13645;52.460;13.910;2023-08-30T01:42:15;6.13;;;2.80;;
25810;SDS011;13645;52.460;13.910;2023-08-30T01:45:06;6.68;;;2.53;;
25810;SDS011;13645;52.460;13.910;2023-08-30T01:48:35;4.00;;;2.90;;
25810;SDS011;13645;52.460;13.910;2023-08-30T01:52:10;4.28;;;2.95;;
25810;SDS011;13645;52.460;13.910;2023-08-30T01:55:47;3.28;;;2.63;;
25810;SDS011;13645;52.460;13.910;2023-08-30T01:58:52;7.30;;;2.95;;
25810;SDS011;13645;52.460;13.910;2023-08-30T02:02:18;9.07;;;3.67;;
25810;SDS011;13645;52.460;13.910;2023-08-30T02:12:58;4.45;;;3.65;;
25810;SDS011;13645;52.460;13.910;2023-08-30T02:16:10;7.57;;;4.78;;
25810;SDS011;13645;52.460;13.910;2023-08-30T02:20:00;7.85;;;4.60;;
25810;SDS011;13645;52.460;13.910;2023-08-30T02:23:49;6.18;;;4.45;;
25810;SDS011;13645;52.460;13.910;2023-08-30T02:27:04;6.57;;;5.30;;
25810;SDS011;13645;52.460;13.910;2023-08-30T02:30:22;10.93;;;5.32;;
25810;SDS011;13645;52.460;13.910;2023-08-30T02:33:44;7.93;;;5.65;;
25810;SDS011;13645;52.460;13.910;2023-08-30T02:37:12;13.40;;;6.40;;
25810;SDS011;13645;52.460;13.910;2023-08-30T02:40:49;12.05;;;6.40;;
